createdAt,value
2023-03-04T00:01:16.200Z,9.00
2023-03-04T00:03:42.936Z,9.00
2023-03-04T00:06:09.706Z,8.90
2023-03-04T00:08:36.386Z,8.90
2023-03-04T00:11:03.080Z,9.00
2023-03-04T00:13:29.766Z,9.00
2023-03-04T00:15:56.506Z,9.00
2023-03-04T00:18:23.373Z,8.90
2023-03-04T00:20:50.526Z,8.90
2023-03-04T00:23:17.667Z,8.90
2023-03-04T00:25:44.425Z,8.90
2023-03-04T00:28:11.089Z,8.90
2023-03-04T00:30:38.729Z,8.90
2023-03-04T00:33:05.543Z,8.90
2023-03-04T00:35:32.267Z,8.90
2023-03-04T00:37:58.932Z,8.90
2023-03-04T00:40:25.574Z,8.90
2023-03-04T00:42:52.226Z,8.90
2023-03-04T00:45:18.958Z,8.90
2023-03-04T00:47:46.009Z,8.90
2023-03-04T00:50:13.056Z,8.90
2023-03-04T00:52:39.899Z,8.90
2023-03-04T00:55:07.831Z,8.90
2023-03-04T00:57:34.642Z,8.90
2023-03-04T01:00:01.337Z,8.90
2023-03-04T01:02:28.289Z,8.90
2023-03-04T01:04:54.999Z,8.90
2023-03-04T01:07:21.847Z,8.80
2023-03-04T01:09:48.531Z,8.80
2023-03-04T01:12:15.210Z,8.90
2023-03-04T01:14:43.504Z,8.90
2023-03-04T01:17:12.221Z,8.80
2023-03-04T01:19:39.044Z,8.80
2023-03-04T01:22:05.747Z,8.80
2023-03-04T01:24:32.486Z,8.80
2023-03-04T01:26:59.169Z,8.90
2023-03-04T01:29:25.910Z,8.80
2023-03-04T01:31:52.590Z,8.90
2023-03-04T01:34:20.277Z,8.90
2023-03-04T01:36:46.915Z,8.90
2023-03-04T01:39:13.533Z,8.90
2023-03-04T01:41:40.415Z,8.90
2023-03-04T01:44:09.476Z,8.90
2023-03-04T01:46:37.005Z,8.90
2023-03-04T01:49:03.844Z,8.90
2023-03-04T01:51:30.573Z,8.90
2023-03-04T01:53:57.184Z,8.90
2023-03-04T01:56:28.606Z,8.90
2023-03-04T01:59:18.644Z,8.90
2023-03-04T02:01:51.690Z,8.90
2023-03-04T02:04:22.016Z,8.90
2023-03-04T02:06:49.788Z,8.90
2023-03-04T02:09:17.563Z,8.90
2023-03-04T02:11:46.212Z,8.90
2023-03-04T02:14:14.750Z,8.90
2023-03-04T02:16:42.040Z,8.90
2023-03-04T02:19:24.331Z,8.90
2023-03-04T02:21:51.120Z,8.90
2023-03-04T02:24:38.771Z,8.90
2023-03-04T02:27:05.554Z,8.90
2023-03-04T02:29:32.602Z,8.90
2023-03-04T02:31:59.435Z,8.90
2023-03-04T02:34:31.362Z,8.90
2023-03-04T02:36:58.540Z,8.90
2023-03-04T02:39:39.055Z,8.90
2023-03-04T02:42:06.210Z,8.90
2023-03-04T02:44:36.965Z,8.90
2023-03-04T02:47:06.421Z,8.90
2023-03-04T02:49:35.551Z,8.90
2023-03-04T02:52:05.274Z,8.90
2023-03-04T02:54:32.388Z,8.90
2023-03-04T02:57:04.011Z,8.80
2023-03-04T02:59:33.851Z,8.80
2023-03-04T03:02:00.741Z,8.90
2023-03-04T03:04:28.371Z,8.90
2023-03-04T03:06:55.543Z,8.80
2023-03-04T03:09:22.679Z,8.90
2023-03-04T03:11:49.508Z,8.90
2023-03-04T03:14:16.326Z,8.90
2023-03-04T03:16:43.434Z,8.80
2023-03-04T03:19:11.157Z,8.80
2023-03-04T03:21:38.623Z,8.80
2023-03-04T03:24:05.478Z,8.80
2023-03-04T03:26:32.274Z,8.80
2023-03-04T03:28:58.978Z,8.80
2023-03-04T03:31:28.000Z,8.80
2023-03-04T03:33:54.695Z,8.80
2023-03-04T03:36:21.544Z,8.80
2023-03-04T03:38:48.233Z,8.80
2023-03-04T03:41:14.892Z,8.80
2023-03-04T03:43:41.620Z,8.80
2023-03-04T03:46:08.272Z,8.80
2023-03-04T03:48:35.000Z,8.80
2023-03-04T03:51:01.918Z,8.80
2023-03-04T03:53:28.550Z,8.80
2023-03-04T03:55:55.182Z,8.80
2023-03-04T03:58:23.107Z,8.80
2023-03-04T04:00:49.927Z,8.80
2023-03-04T04:03:17.379Z,8.80
2023-03-04T04:05:44.300Z,8.80
2023-03-04T04:08:16.147Z,8.80
2023-03-04T04:10:43.393Z,8.80
2023-03-04T04:13:10.381Z,8.80
2023-03-04T04:15:38.609Z,8.80
2023-03-04T04:18:06.704Z,8.80
2023-03-04T04:20:34.109Z,8.80
2023-03-04T04:23:00.919Z,8.80
2023-03-04T04:25:27.652Z,8.80
2023-03-04T04:27:54.306Z,8.80
2023-03-04T04:30:21.144Z,8.80
2023-03-04T04:32:47.941Z,8.80
2023-03-04T04:35:14.585Z,8.80
2023-03-04T04:37:41.286Z,8.80
2023-03-04T04:40:08.734Z,8.80
2023-03-04T04:42:35.480Z,8.80
2023-03-04T04:45:02.272Z,8.80
2023-03-04T04:47:28.957Z,8.80
2023-03-04T04:49:55.743Z,8.80
2023-03-04T04:52:22.463Z,8.80
2023-03-04T04:54:49.213Z,8.80
2023-03-04T04:57:18.919Z,8.80
2023-03-04T04:59:47.133Z,8.80
2023-03-04T05:02:14.030Z,8.80
2023-03-04T05:04:40.770Z,8.80
2023-03-04T05:07:07.461Z,8.80
2023-03-04T05:09:34.146Z,8.80
2023-03-04T05:12:00.782Z,8.80
2023-03-04T05:14:27.407Z,8.80
2023-03-04T05:16:54.116Z,8.70
2023-03-04T05:19:21.353Z,8.70
2023-03-04T05:21:48.121Z,8.70
2023-03-04T05:24:14.793Z,8.70
2023-03-04T05:26:41.611Z,8.80
2023-03-04T05:29:08.490Z,8.70
2023-03-04T05:31:35.224Z,8.70
2023-03-04T05:34:01.935Z,8.80
2023-03-04T05:36:28.618Z,8.70
2023-03-04T05:38:55.356Z,8.70
2023-03-04T05:41:22.780Z,8.80
2023-03-04T05:43:50.377Z,8.70
2023-03-04T05:46:19.159Z,8.70
2023-03-04T05:48:45.986Z,8.70
2023-03-04T05:51:12.628Z,8.70
2023-03-04T05:53:40.954Z,8.70
2023-03-04T05:56:12.683Z,8.70
2023-03-04T05:58:39.514Z,8.70
2023-03-04T06:01:06.368Z,8.70
2023-03-04T06:03:33.448Z,8.70
2023-03-04T06:06:00.478Z,8.70
2023-03-04T06:08:27.752Z,8.70
2023-03-04T06:10:56.662Z,8.70
2023-03-04T06:13:23.478Z,8.70
2023-03-04T06:15:55.374Z,8.70
2023-03-04T06:18:23.111Z,8.70
2023-03-04T06:20:49.825Z,8.70
2023-03-04T06:23:17.345Z,8.70
2023-03-04T06:25:44.096Z,8.70
2023-03-04T06:28:10.779Z,8.70
2023-03-04T06:30:37.467Z,8.70
2023-03-04T06:33:04.161Z,8.70
2023-03-04T06:35:30.866Z,8.70
2023-03-04T06:37:57.497Z,8.70
2023-03-04T06:40:24.220Z,8.70
2023-03-04T06:42:50.858Z,8.70
2023-03-04T06:45:17.691Z,8.70
2023-03-04T06:47:44.986Z,8.70
2023-03-04T06:50:12.866Z,8.70
2023-03-04T06:52:40.310Z,8.70
2023-03-04T06:55:09.168Z,8.70
2023-03-04T06:57:35.907Z,8.70
2023-03-04T07:00:03.410Z,8.70
2023-03-04T07:02:30.204Z,8.80
2023-03-04T07:04:56.913Z,8.80
2023-03-04T07:07:25.556Z,8.80
2023-03-04T07:09:52.222Z,8.80
2023-03-04T07:12:19.082Z,8.80
2023-03-04T07:14:45.790Z,8.90
2023-03-04T07:17:12.518Z,8.80
2023-03-04T07:19:39.324Z,8.90
2023-03-04T07:22:06.017Z,8.90
2023-03-04T07:24:32.726Z,8.90
2023-03-04T07:26:59.526Z,9.00
2023-03-04T07:29:26.226Z,9.00
2023-03-04T07:31:53.780Z,9.00
2023-03-04T07:34:20.874Z,9.10
2023-03-04T07:36:47.492Z,9.10
2023-03-04T07:39:14.498Z,9.10
2023-03-04T07:41:41.803Z,9.20
2023-03-04T07:44:13.077Z,9.20
2023-03-04T07:46:40.607Z,9.20
2023-03-04T07:49:07.550Z,9.20
2023-03-04T07:51:34.906Z,9.20
2023-03-04T07:54:01.837Z,9.20
2023-03-04T07:56:32.275Z,9.20
2023-03-04T07:58:59.603Z,9.30
2023-03-04T08:01:31.173Z,9.30
2023-03-04T08:03:58.932Z,9.30
2023-03-04T08:06:26.810Z,9.30
2023-03-04T08:09:01.516Z,9.30
2023-03-04T08:11:29.926Z,9.30
2023-03-04T08:13:56.856Z,9.30
2023-03-04T08:16:24.930Z,9.30
2023-03-04T08:19:00.546Z,9.30
2023-03-04T08:21:28.255Z,9.30
2023-03-04T08:23:57.023Z,9.30
2023-03-04T08:26:34.065Z,9.30
2023-03-04T08:29:03.007Z,9.30
2023-03-04T08:31:30.006Z,9.30
2023-03-04T08:33:56.878Z,9.30
2023-03-04T08:36:23.656Z,9.30
2023-03-04T08:38:50.326Z,9.30
2023-03-04T08:41:17.069Z,9.30
2023-03-04T08:43:44.222Z,9.30
2023-03-04T08:46:10.940Z,9.30
2023-03-04T08:48:38.731Z,9.30
2023-03-04T08:51:13.692Z,9.30
2023-03-04T08:53:40.848Z,9.40
2023-03-04T08:56:09.141Z,9.40
2023-03-04T08:58:36.060Z,9.40
2023-03-04T09:01:03.675Z,9.50
2023-03-04T09:03:30.783Z,9.50
2023-03-04T09:05:57.531Z,9.60
2023-03-04T09:08:24.359Z,9.70
2023-03-04T09:10:54.013Z,9.70
2023-03-04T09:13:24.528Z,9.70
2023-03-04T09:15:53.473Z,9.80
2023-03-04T09:18:22.147Z,9.80
2023-03-04T09:20:48.983Z,9.80
2023-03-04T09:23:16.832Z,9.80
2023-03-04T09:25:45.297Z,9.80
2023-03-04T09:28:12.580Z,9.90
2023-03-04T09:30:39.618Z,9.80
2023-03-04T09:33:06.375Z,9.90
2023-03-04T09:35:33.154Z,9.90
2023-03-04T09:37:59.841Z,9.90
2023-03-04T09:40:48.110Z,9.90
2023-03-04T09:43:23.631Z,9.80
2023-03-04T09:45:55.199Z,9.80
2023-03-04T09:48:24.898Z,9.90
2023-03-04T09:51:19.570Z,9.90
2023-03-04T09:54:09.511Z,9.90
2023-03-04T09:56:40.961Z,9.90
2023-03-04T09:59:13.787Z,10.00
2023-03-04T10:01:48.521Z,10.10
2023-03-04T10:04:26.552Z,10.10
2023-03-04T10:06:54.608Z,10.20
2023-03-04T10:09:42.650Z,10.20
2023-03-04T10:12:15.587Z,10.30
2023-03-04T10:15:02.479Z,10.40
2023-03-04T10:17:39.578Z,10.40
2023-03-04T10:20:15.189Z,10.40
2023-03-04T10:22:43.893Z,10.50
2023-03-04T10:25:22.367Z,10.50
2023-03-04T10:27:59.892Z,10.60
2023-03-04T10:30:51.051Z,10.60
2023-03-04T10:33:24.930Z,10.60
2023-03-04T10:36:21.163Z,10.60
2023-03-04T10:38:47.930Z,10.60
2023-03-04T10:41:18.021Z,10.60
2023-03-04T10:43:50.808Z,10.60
2023-03-04T10:46:17.626Z,10.60
2023-03-04T10:48:45.151Z,10.60
2023-03-04T10:51:20.473Z,10.60
2023-03-04T10:53:50.775Z,10.60
2023-03-04T10:56:42.767Z,10.60
2023-03-04T10:59:33.852Z,10.60
2023-03-04T11:02:13.494Z,10.70
2023-03-04T11:04:40.355Z,10.70
2023-03-04T11:07:10.946Z,10.80
2023-03-04T11:09:40.065Z,10.80
2023-03-04T11:12:12.275Z,10.80
2023-03-04T11:14:50.248Z,10.80
2023-03-04T11:17:26.009Z,10.80
2023-03-04T11:19:57.952Z,10.80
2023-03-04T11:22:27.849Z,10.90
2023-03-04T11:25:19.863Z,10.80
2023-03-04T11:27:51.388Z,10.80
2023-03-04T11:30:36.578Z,10.80
2023-03-04T11:33:33.329Z,10.80
2023-03-04T11:36:09.104Z,10.70
2023-03-04T11:38:43.726Z,10.70
2023-03-04T11:41:16.285Z,10.70
2023-03-04T11:43:45.602Z,10.70
2023-03-04T11:46:48.990Z,10.60
2023-03-04T11:49:32.553Z,10.60
2023-03-04T11:52:11.199Z,10.60
2023-03-04T11:55:05.942Z,10.60
2023-03-04T11:57:44.264Z,10.60
2023-03-04T12:00:22.981Z,10.60
2023-03-04T12:03:12.749Z,10.60
2023-03-04T12:06:19.394Z,10.60
2023-03-04T12:09:00.823Z,10.60
2023-03-04T12:11:55.243Z,10.60
2023-03-04T12:14:53.377Z,10.70
2023-03-04T12:17:41.124Z,10.70
2023-03-04T12:20:43.713Z,10.80
2023-03-04T12:23:42.267Z,10.90
2023-03-04T12:26:25.392Z,11.00
2023-03-04T12:29:10.174Z,11.10
2023-03-04T12:31:43.234Z,11.20
2023-03-04T12:34:30.782Z,11.20
2023-03-04T12:37:21.812Z,11.30
2023-03-04T12:40:06.712Z,11.40
2023-03-04T12:43:02.657Z,11.40
2023-03-04T12:45:54.307Z,11.50
2023-03-04T12:48:39.300Z,11.50
2023-03-04T12:51:15.013Z,11.60
2023-03-04T12:53:58.928Z,11.60
2023-03-04T12:56:31.385Z,11.60
2023-03-04T12:58:58.789Z,11.70
2023-03-04T13:01:44.964Z,11.70
2023-03-04T13:04:22.662Z,11.70
2023-03-04T13:07:13.184Z,11.70
2023-03-04T13:09:52.881Z,11.70
2023-03-04T13:12:22.430Z,11.70
2023-03-04T13:15:07.695Z,11.70
2023-03-04T13:17:54.637Z,11.70
2023-03-04T13:20:26.219Z,11.80
2023-03-04T13:23:01.709Z,11.80
2023-03-04T13:25:47.251Z,11.80
2023-03-04T13:28:18.569Z,11.80
2023-03-04T13:30:55.774Z,11.90
2023-03-04T13:33:22.586Z,11.90
2023-03-04T13:36:03.976Z,11.90
2023-03-04T13:38:34.782Z,11.80
2023-03-04T13:41:20.020Z,11.80
2023-03-04T13:43:52.412Z,11.80
2023-03-04T13:46:26.786Z,11.70
2023-03-04T13:48:56.461Z,11.70
2023-03-04T13:51:41.494Z,11.60
2023-03-04T13:54:21.555Z,11.60
2023-03-04T13:57:09.169Z,11.60
2023-03-04T13:59:44.366Z,11.60
2023-03-04T14:02:22.658Z,11.50
2023-03-04T14:05:01.034Z,11.50
2023-03-04T14:07:29.179Z,11.50
2023-03-04T14:10:12.219Z,11.50
2023-03-04T14:12:44.786Z,11.50
2023-03-04T14:15:14.306Z,11.50
2023-03-04T14:17:47.112Z,11.50
2023-03-04T14:20:48.111Z,11.50
2023-03-04T14:23:30.036Z,11.50
2023-03-04T14:26:10.058Z,11.50
2023-03-04T14:28:51.998Z,11.50
2023-03-04T14:31:21.899Z,11.50
2023-03-04T14:33:52.082Z,11.50
2023-03-04T14:36:23.296Z,11.50
2023-03-04T14:38:59.171Z,11.50
2023-03-04T14:41:35.407Z,11.50
2023-03-04T14:44:36.061Z,11.50
2023-03-04T14:47:23.975Z,11.50
2023-03-04T14:49:51.309Z,11.50
2023-03-04T14:52:36.281Z,11.50
2023-03-04T14:55:09.276Z,11.50
2023-03-04T14:57:35.979Z,11.50
2023-03-04T15:00:22.498Z,11.50
2023-03-04T15:03:02.268Z,11.50
2023-03-04T15:05:34.229Z,11.50
2023-03-04T15:08:07.046Z,11.50
2023-03-04T15:10:38.052Z,11.50
2023-03-04T15:13:08.099Z,11.50
2023-03-04T15:15:37.108Z,11.50
2023-03-04T15:18:26.161Z,11.50
2023-03-04T15:20:55.045Z,11.50
2023-03-04T15:23:21.792Z,11.50
2023-03-04T15:26:11.943Z,11.50
2023-03-04T15:28:41.744Z,11.50
2023-03-04T15:31:17.416Z,11.40
2023-03-04T15:33:44.129Z,11.40
2023-03-04T15:36:16.280Z,11.40
2023-03-04T15:38:47.593Z,11.30
2023-03-04T15:41:34.287Z,11.30
2023-03-04T15:44:00.973Z,11.30
2023-03-04T15:46:27.643Z,11.30
2023-03-04T15:48:54.293Z,11.20
2023-03-04T15:51:22.615Z,11.20
2023-03-04T15:53:55.080Z,11.20
2023-03-04T15:56:24.922Z,11.20
2023-03-04T15:59:01.359Z,11.20
2023-03-04T16:01:28.074Z,11.20
2023-03-04T16:03:54.960Z,11.10
2023-03-04T16:06:24.381Z,11.10
2023-03-04T16:08:52.110Z,11.10
2023-03-04T16:11:25.372Z,11.00
2023-03-04T16:13:52.407Z,11.00
2023-03-04T16:16:19.700Z,10.90
2023-03-04T16:18:46.575Z,10.80
2023-03-04T16:21:16.733Z,10.80
2023-03-04T16:23:46.628Z,10.90
2023-03-04T16:26:17.012Z,10.70
2023-03-04T16:28:44.077Z,10.60
2023-03-04T16:31:12.066Z,10.60
2023-03-04T16:33:38.774Z,10.50
2023-03-04T16:36:18.505Z,10.50
2023-03-04T16:38:45.789Z,10.40
2023-03-04T16:41:15.420Z,10.40
2023-03-04T16:43:42.899Z,10.40
2023-03-04T16:46:13.481Z,10.30
2023-03-04T16:48:40.522Z,10.30
2023-03-04T16:51:14.620Z,10.30
2023-03-04T16:53:43.674Z,10.20
2023-03-04T16:56:14.372Z,10.20
2023-03-04T16:58:41.689Z,10.10
2023-03-04T17:01:17.047Z,10.10
2023-03-04T17:03:43.856Z,10.10
2023-03-04T17:06:11.725Z,10.00
2023-03-04T17:08:38.480Z,10.00
2023-03-04T17:11:05.488Z,10.00
2023-03-04T17:13:32.286Z,9.90
2023-03-04T17:16:02.913Z,9.90
2023-03-04T17:18:29.751Z,9.90
2023-03-04T17:21:03.534Z,9.90
2023-03-04T17:23:30.200Z,9.80
2023-03-04T17:25:58.382Z,9.80
2023-03-04T17:28:26.000Z,9.80
2023-03-04T17:30:52.728Z,9.80
2023-03-04T17:33:19.860Z,9.80
2023-03-04T17:35:46.594Z,9.70
2023-03-04T17:38:14.064Z,9.70
2023-03-04T17:40:44.006Z,9.70
2023-03-04T17:43:13.574Z,9.70
2023-03-04T17:45:44.100Z,9.70
2023-03-04T17:48:15.274Z,9.70
2023-03-04T17:50:49.997Z,9.70
2023-03-04T17:53:17.280Z,9.70
2023-03-04T17:56:01.712Z,9.70
2023-03-04T17:58:30.256Z,9.60
2023-03-04T18:01:04.516Z,9.60
2023-03-04T18:03:31.334Z,9.60
2023-03-04T18:05:58.009Z,9.60
2023-03-04T18:08:24.829Z,9.50
2023-03-04T18:10:51.524Z,9.50
2023-03-04T18:13:18.258Z,9.50
2023-03-04T18:15:44.891Z,9.40
2023-03-04T18:18:11.590Z,9.40
2023-03-04T18:20:38.526Z,9.40
2023-03-04T18:23:05.211Z,9.30
2023-03-04T18:25:31.907Z,9.30
2023-03-04T18:27:58.594Z,9.30
2023-03-04T18:30:27.368Z,9.20
2023-03-04T18:32:59.841Z,9.20
2023-03-04T18:35:26.744Z,9.20
2023-03-04T18:37:53.485Z,9.20
2023-03-04T18:40:21.033Z,9.20
2023-03-04T18:42:47.863Z,9.20
2023-03-04T18:45:16.100Z,9.20
2023-03-04T18:47:46.874Z,9.20
2023-03-04T18:50:14.307Z,9.10
2023-03-04T18:52:41.227Z,9.10
2023-03-04T18:55:08.468Z,9.10
2023-03-04T18:57:37.137Z,9.10
2023-03-04T19:00:05.705Z,9.10
2023-03-04T19:02:33.467Z,9.00
2023-03-04T19:05:18.687Z,9.10
2023-03-04T19:07:45.398Z,9.00
2023-03-04T19:10:13.002Z,9.00
2023-03-04T19:12:39.719Z,9.00
2023-03-04T19:15:08.452Z,9.00
2023-03-04T19:17:35.827Z,9.00
2023-03-04T19:20:04.556Z,9.00
2023-03-04T19:22:31.274Z,9.00
2023-03-04T19:24:58.613Z,9.00
2023-03-04T19:27:25.618Z,9.00
2023-03-04T19:29:52.285Z,8.90
2023-03-04T19:32:19.258Z,8.90
2023-03-04T19:34:47.122Z,8.90
2023-03-04T19:37:14.984Z,8.90
2023-03-04T19:39:45.826Z,8.90
2023-03-04T19:42:13.399Z,8.90
2023-03-04T19:44:41.297Z,8.90
2023-03-04T19:47:09.260Z,8.90
2023-03-04T19:49:35.890Z,8.90
2023-03-04T19:52:02.753Z,8.90
2023-03-04T19:54:29.543Z,8.90
2023-03-04T19:56:57.455Z,8.80
2023-03-04T19:59:24.547Z,8.80
2023-03-04T20:01:51.315Z,8.80
2023-03-04T20:04:20.821Z,8.80
2023-03-04T20:06:50.326Z,8.80
2023-03-04T20:09:18.502Z,8.80
2023-03-04T20:11:57.184Z,8.80
2023-03-04T20:14:24.954Z,8.80
2023-03-04T20:16:51.712Z,8.70
2023-03-04T20:19:18.498Z,8.70
2023-03-04T20:21:45.232Z,8.80
2023-03-04T20:24:12.860Z,8.80
2023-03-04T20:26:39.532Z,8.70
2023-03-04T20:29:06.332Z,8.70
2023-03-04T20:31:38.100Z,8.70
2023-03-04T20:34:05.518Z,8.70
2023-03-04T20:36:32.288Z,8.70
2023-03-04T20:39:05.436Z,8.70
2023-03-04T20:41:37.852Z,8.70
2023-03-04T20:44:06.244Z,8.70
2023-03-04T20:46:34.743Z,8.70
2023-03-04T20:49:04.495Z,8.70
2023-03-04T20:51:32.558Z,8.70
2023-03-04T20:53:59.653Z,8.60
2023-03-04T20:56:27.221Z,8.60
2023-03-04T20:58:54.940Z,8.60
2023-03-04T21:01:22.817Z,8.60
2023-03-04T21:03:49.888Z,8.60
2023-03-04T21:06:16.714Z,8.60
2023-03-04T21:08:43.989Z,8.60
2023-03-04T21:11:15.082Z,8.60
2023-03-04T21:13:43.125Z,8.60
2023-03-04T21:16:15.757Z,8.60
2023-03-04T21:18:44.045Z,8.60
2023-03-04T21:21:30.130Z,8.60
2023-03-04T21:23:58.433Z,8.60
2023-03-04T21:26:25.710Z,8.60
2023-03-04T21:28:53.932Z,8.60
2023-03-04T21:31:30.872Z,8.60
2023-03-04T21:34:00.130Z,8.60
2023-03-04T21:36:26.977Z,8.60
2023-03-04T21:38:53.785Z,8.60
2023-03-04T21:41:22.633Z,8.60
2023-03-04T21:43:49.913Z,8.50
2023-03-04T21:46:17.982Z,8.60
2023-03-04T21:48:44.858Z,8.60
2023-03-04T21:51:14.011Z,8.50
2023-03-04T21:53:40.915Z,8.60
2023-03-04T21:56:07.551Z,8.50
2023-03-04T21:58:41.423Z,8.50
2023-03-04T22:01:13.759Z,8.50
2023-03-04T22:03:40.970Z,8.50
2023-03-04T22:06:09.435Z,8.50
2023-03-04T22:08:36.856Z,8.50
2023-03-04T22:11:06.053Z,8.50
2023-03-04T22:13:33.483Z,8.50
2023-03-04T22:16:01.138Z,8.50
2023-03-04T22:18:28.076Z,8.50
2023-03-04T22:21:04.186Z,8.50
2023-03-04T22:23:31.428Z,8.50
2023-03-04T22:26:03.402Z,8.50
2023-03-04T22:28:31.525Z,8.50
2023-03-04T22:30:58.810Z,8.50
2023-03-04T22:33:25.964Z,8.40
2023-03-04T22:35:53.014Z,8.40
2023-03-04T22:38:20.980Z,8.50
2023-03-04T22:40:48.822Z,8.40
2023-03-04T22:43:15.503Z,8.40
2023-03-04T22:45:42.171Z,8.40
2023-03-04T22:48:08.828Z,8.40
2023-03-04T22:50:36.424Z,8.40
2023-03-04T22:53:04.733Z,8.40
2023-03-04T22:55:31.398Z,8.40
2023-03-04T22:57:58.094Z,8.40
2023-03-04T23:00:27.397Z,8.40
2023-03-04T23:02:55.000Z,8.40
2023-03-04T23:05:22.048Z,8.40
2023-03-04T23:07:49.962Z,8.30
2023-03-04T23:10:22.478Z,8.40
2023-03-04T23:12:49.796Z,8.30
2023-03-04T23:15:18.393Z,8.30
2023-03-04T23:17:46.032Z,8.30
2023-03-04T23:20:16.044Z,8.30
2023-03-04T23:22:42.810Z,8.30
2023-03-04T23:25:10.370Z,8.30
2023-03-04T23:27:38.192Z,8.30
2023-03-04T23:30:14.676Z,8.30
2023-03-04T23:32:41.556Z,8.30
2023-03-04T23:35:08.375Z,8.20
2023-03-04T23:37:35.072Z,8.30
2023-03-04T23:40:01.934Z,8.30
2023-03-04T23:42:28.787Z,8.20
2023-03-04T23:44:55.467Z,8.20
2023-03-04T23:47:22.138Z,8.20
2023-03-04T23:49:48.948Z,8.20
2023-03-04T23:52:15.648Z,8.20
2023-03-04T23:54:43.304Z,8.20
2023-03-04T23:57:09.957Z,8.20
2023-03-04T23:59:38.640Z,8.20
